Savanna Army Depot, Illinois
Current Conditions -  °F | °C
As of 7:15 PM on Tuesday 27 Jan 2015 (Local Time) from KSFY Reporting Station
Overcast Overcast  
Wind Chill: 28°   Ceiling: 1400
Heat Index: 28°   Visibility: 7mi
Dew Point: 24°   Wind: 0mph
Humidity: 84%   Direction: NA
Pressure: 30.23"   Gusts: NA
Location:  42.1463°N, 90.1589°W
Report Text: KSFY 280115Z AUTO 00000KT 7SM OVC014 M02/M04 A3023 RMK AO2 T10201043
Loading
Personal Weather Stations






























Interactive Weather Map New forecast layout! Learn more

10-Day Weather Forecast

Advertisements
Track Severe Weather on mobile